createdAt,value
2019-02-17T00:06:35.064Z,101513.72
2019-02-17T00:11:46.353Z,101510.28
2019-02-17T00:14:31.109Z,101513.18
2019-02-17T00:16:46.031Z,101511.28
2019-02-17T00:19:14.732Z,101512.56
2019-02-17T00:21:43.562Z,101511.81
2019-02-17T00:24:12.454Z,101518.09
2019-02-17T00:26:41.098Z,101503.66
2019-02-17T00:29:09.718Z,101513.21
2019-02-17T00:31:38.328Z,101516.34
2019-02-17T00:34:06.950Z,101519.21
2019-02-17T00:36:35.554Z,101519.91
2019-02-17T00:39:05.458Z,101520.91
2019-02-17T00:41:34.163Z,101517.31
2019-02-17T00:44:02.742Z,101519.13
2019-02-17T00:46:31.431Z,101520.27
2019-02-17T00:49:00.149Z,101516.95
2019-02-17T00:51:28.804Z,101517.96
2019-02-17T00:53:57.508Z,101517.83
2019-02-17T00:56:26.207Z,101519.23
2019-02-17T00:58:54.829Z,101515.86
2019-02-17T01:01:23.475Z,101511.48
2019-02-17T01:03:52.084Z,101511.20
2019-02-17T01:06:20.705Z,101510.02
2019-02-17T01:08:49.366Z,101510.55
2019-02-17T01:11:18.013Z,101507.20
2019-02-17T01:13:46.687Z,101507.01
2019-02-17T01:16:15.331Z,101508.73
2019-02-17T01:18:43.955Z,101510.38
2019-02-17T01:21:12.577Z,101517.31
2019-02-17T01:23:41.186Z,101518.77
2019-02-17T01:26:09.835Z,101515.56
2019-02-17T01:28:38.457Z,101516.82
2019-02-17T01:31:08.482Z,101515.42
2019-02-17T01:33:37.432Z,101513.42
2019-02-17T01:36:06.061Z,101517.47
2019-02-17T01:38:34.677Z,101512.95
2019-02-17T01:43:37.750Z,101511.86
2019-02-17T01:46:06.388Z,101518.63
2019-02-17T01:48:35.002Z,101507.75
2019-02-17T01:51:03.619Z,101513.31
2019-02-17T01:53:51.278Z,101513.42
2019-02-17T01:56:19.888Z,101509.03
2019-02-17T01:58:48.531Z,101509.66
2019-02-17T02:01:17.331Z,101508.27
2019-02-17T02:03:47.493Z,101508.13
2019-02-17T02:06:16.121Z,101513.10
2019-02-17T02:08:44.764Z,101498.36
2019-02-17T02:11:13.391Z,101504.58
2019-02-17T02:13:42.040Z,101497.27
2019-02-17T02:16:10.679Z,101502.29
2019-02-17T02:18:39.349Z,101501.31
2019-02-17T02:21:07.989Z,101502.16
2019-02-17T02:23:36.624Z,101492.34
2019-02-17T02:26:05.245Z,101487.83
2019-02-17T02:28:33.886Z,101488.59
2019-02-17T02:31:02.493Z,101491.20
2019-02-17T02:33:31.129Z,101491.88
2019-02-17T02:35:59.756Z,101493.28
2019-02-17T02:38:28.390Z,101492.75
2019-02-17T02:40:57.024Z,101496.41
2019-02-17T02:43:25.649Z,101498.34
2019-02-17T02:45:54.309Z,101494.23
2019-02-17T02:48:22.921Z,101481.31
2019-02-17T02:50:53.126Z,101480.11
2019-02-17T02:53:21.918Z,101478.66
2019-02-17T02:55:50.567Z,101470.03
2019-02-17T02:58:19.183Z,101469.16
2019-02-17T03:00:47.804Z,101480.42
2019-02-17T03:03:16.488Z,101465.23
2019-02-17T03:06:04.191Z,101470.64
2019-02-17T03:08:32.804Z,101478.77
2019-02-17T03:11:01.426Z,101484.08
2019-02-17T03:13:30.138Z,101483.90
2019-02-17T03:15:58.774Z,101486.95
2019-02-17T03:18:27.387Z,101476.59
2019-02-17T03:20:56.037Z,101476.01
2019-02-17T03:23:24.693Z,101475.11
2019-02-17T03:25:53.332Z,101473.33
2019-02-17T03:28:21.927Z,101475.68
2019-02-17T03:30:50.564Z,101477.67
2019-02-17T03:33:19.214Z,101479.22
2019-02-17T03:35:47.863Z,101477.27
2019-02-17T03:38:16.485Z,101479.28
2019-02-17T03:40:45.150Z,101475.28
2019-02-17T03:43:13.850Z,101478.12
2019-02-17T03:45:42.502Z,101483.94
2019-02-17T03:48:11.135Z,101488.80
2019-02-17T03:50:39.750Z,101481.23
2019-02-17T03:53:08.396Z,101480.83
2019-02-17T03:55:37.007Z,101477.55
2019-02-17T03:58:05.726Z,101484.36
2019-02-17T04:00:34.345Z,101479.61
2019-02-17T04:03:02.979Z,101484.86
2019-02-17T04:05:31.617Z,101483.66
2019-02-17T04:08:00.259Z,101474.08
2019-02-17T04:10:28.889Z,101473.00
2019-02-17T04:12:57.518Z,101480.92
2019-02-17T04:15:26.210Z,101481.67
2019-02-17T04:17:54.854Z,101474.89
2019-02-17T04:20:23.488Z,101477.05
2019-02-17T04:22:52.114Z,101479.95
2019-02-17T04:25:20.738Z,101477.52
2019-02-17T04:27:49.389Z,101477.41
2019-02-17T04:30:28.581Z,101469.53
2019-02-17T04:32:48.356Z,101475.53
2019-02-17T04:35:16.988Z,101474.42
2019-02-17T04:37:45.632Z,101476.27
2019-02-17T04:40:14.249Z,101475.25
2019-02-17T04:42:42.909Z,101484.74
2019-02-17T04:45:11.544Z,101470.27
2019-02-17T04:47:40.245Z,101474.96
2019-02-17T04:50:08.970Z,101469.53
2019-02-17T04:52:37.676Z,101467.09
2019-02-17T04:55:06.733Z,101464.66
2019-02-17T04:57:35.354Z,101463.43
2019-02-17T05:00:04.117Z,101465.70
2019-02-17T05:02:32.731Z,101465.77
2019-02-17T05:05:01.435Z,101469.27
2019-02-17T05:07:30.085Z,101471.89
2019-02-17T05:09:58.719Z,101463.92
2019-02-17T05:12:27.338Z,101464.48
2019-02-17T05:14:55.973Z,101466.00
2019-02-17T05:17:24.616Z,101465.70
2019-02-17T05:19:53.278Z,101464.28
2019-02-17T05:22:21.901Z,101468.11
2019-02-17T05:24:50.543Z,101465.77
2019-02-17T05:27:19.170Z,101467.09
2019-02-17T05:29:47.809Z,101466.08
2019-02-17T05:32:16.435Z,101459.80
2019-02-17T05:34:45.057Z,101465.52
2019-02-17T05:37:13.699Z,101463.56
2019-02-17T05:39:42.358Z,101473.20
2019-02-17T05:42:10.993Z,101458.30
2019-02-17T05:44:39.633Z,101465.14
2019-02-17T05:47:08.258Z,101463.92
2019-02-17T05:49:36.878Z,101466.83
2019-02-17T05:52:05.515Z,101461.97
2019-02-17T05:54:34.194Z,101468.05
2019-02-17T05:57:02.955Z,101461.70
2019-02-17T05:59:31.675Z,101467.89
2019-02-17T06:02:00.290Z,101466.02
2019-02-17T06:04:28.908Z,101456.70
2019-02-17T06:06:57.548Z,101465.64
2019-02-17T06:09:26.161Z,101471.26
2019-02-17T06:11:54.816Z,101471.53
2019-02-17T06:14:23.439Z,101465.45
2019-02-17T06:16:52.087Z,101467.62
2019-02-17T06:19:20.804Z,101469.77
2019-02-17T06:21:49.386Z,101475.77
2019-02-17T06:24:18.011Z,101478.84
2019-02-17T06:26:46.699Z,101479.98
2019-02-17T06:29:15.308Z,101476.22
2019-02-17T06:31:43.944Z,101478.86
2019-02-17T06:34:12.614Z,101482.80
2019-02-17T06:36:41.375Z,101487.94
2019-02-17T06:39:09.994Z,101490.85
2019-02-17T06:41:38.640Z,101486.80
2019-02-17T06:44:07.265Z,101477.45
2019-02-17T06:46:40.500Z,101478.48
2019-02-17T06:49:09.144Z,101483.45
2019-02-17T06:51:37.779Z,101478.94
2019-02-17T06:54:06.472Z,101482.13
2019-02-17T06:56:54.101Z,101486.62
2019-02-17T06:59:22.727Z,101488.50
2019-02-17T07:01:51.358Z,101494.58
2019-02-17T07:07:09.472Z,101490.83
2019-02-17T07:09:38.084Z,101492.06
2019-02-17T07:12:06.749Z,101488.29
2019-02-17T07:14:35.356Z,101490.09
2019-02-17T07:17:04.040Z,101480.23
2019-02-17T07:19:32.689Z,101488.39
2019-02-17T07:22:01.340Z,101479.95
2019-02-17T07:24:29.966Z,101482.69
2019-02-17T07:26:58.593Z,101483.89
2019-02-17T07:29:27.219Z,101482.66
2019-02-17T07:31:55.889Z,101483.97
2019-02-17T07:34:24.506Z,101489.51
2019-02-17T07:36:53.133Z,101482.84
2019-02-17T07:39:21.808Z,101483.27
2019-02-17T07:41:50.451Z,101479.50
2019-02-17T07:44:19.112Z,101483.33
2019-02-17T07:46:47.768Z,101485.68
2019-02-17T07:49:16.701Z,101488.02
2019-02-17T07:51:45.396Z,101486.48
2019-02-17T07:57:37.373Z,101490.92
2019-02-17T08:00:08.630Z,101490.59
2019-02-17T08:02:38.019Z,101491.50
2019-02-17T08:05:06.762Z,101495.88
2019-02-17T08:07:35.424Z,101493.23
2019-02-17T08:10:04.453Z,101490.49
2019-02-17T08:12:33.116Z,101499.06
2019-02-17T08:15:01.773Z,101499.23
2019-02-17T08:17:30.408Z,101493.31
2019-02-17T08:19:59.070Z,101486.78
2019-02-17T08:22:27.735Z,101489.16
2019-02-17T08:24:56.446Z,101491.76
2019-02-17T08:27:25.085Z,101492.16
2019-02-17T08:29:53.880Z,101488.17
2019-02-17T08:32:22.876Z,101489.33
2019-02-17T08:34:53.163Z,101485.15
2019-02-17T08:37:21.917Z,101492.45
2019-02-17T08:39:50.796Z,101483.95
2019-02-17T08:42:19.433Z,101492.38
2019-02-17T08:44:48.052Z,101493.25
2019-02-17T08:47:16.713Z,101485.11
2019-02-17T08:49:45.336Z,101483.61
2019-02-17T08:52:14.001Z,101483.68
2019-02-17T08:54:42.665Z,101483.12
2019-02-17T08:57:11.366Z,101484.72
2019-02-17T08:59:39.978Z,101486.31
2019-02-17T09:02:08.605Z,101489.12
2019-02-17T09:04:37.218Z,101486.75
2019-02-17T09:07:06.530Z,101481.01
2019-02-17T09:09:36.191Z,101478.89
2019-02-17T09:12:04.917Z,101479.95
2019-02-17T09:14:33.525Z,101486.47
2019-02-17T09:17:02.221Z,101474.93
2019-02-17T09:19:30.830Z,101481.44
2019-02-17T09:21:59.489Z,101480.87
2019-02-17T09:24:28.109Z,101474.37
2019-02-17T09:26:56.793Z,101473.29
2019-02-17T09:29:25.430Z,101465.26
2019-02-17T09:31:54.069Z,101463.70
2019-02-17T09:34:22.727Z,101464.52
2019-02-17T09:36:51.504Z,101463.91
2019-02-17T09:39:20.152Z,101463.41
2019-02-17T09:41:48.840Z,101459.90
2019-02-17T09:44:17.456Z,101461.55
2019-02-17T09:46:46.088Z,101457.90
2019-02-17T09:49:14.727Z,101457.77
2019-02-17T09:51:43.435Z,101451.23
2019-02-17T09:54:12.055Z,101465.00
2019-02-17T09:56:40.678Z,101455.90
2019-02-17T09:59:09.351Z,101451.54
2019-02-17T10:01:38.096Z,101444.03
2019-02-17T10:04:06.729Z,101442.05
2019-02-17T10:06:35.491Z,101442.12
2019-02-17T10:09:05.354Z,101445.30
2019-02-17T10:11:33.976Z,101452.19
2019-02-17T10:14:02.931Z,101443.64
2019-02-17T10:16:31.817Z,101448.34
2019-02-17T10:19:00.577Z,101450.97
2019-02-17T10:21:29.262Z,101445.84
2019-02-17T10:23:57.898Z,101455.20
2019-02-17T10:26:26.626Z,101445.61
2019-02-17T10:28:55.281Z,101448.56
2019-02-17T10:34:12.525Z,101441.36
2019-02-17T10:36:41.308Z,101445.99
2019-02-17T10:39:10.018Z,101438.23
2019-02-17T10:41:38.647Z,101439.40
2019-02-17T10:44:07.287Z,101440.87
2019-02-17T10:46:35.904Z,101439.83
2019-02-17T10:49:04.610Z,101434.55
2019-02-17T10:51:33.276Z,101437.96
2019-02-17T10:54:01.907Z,101431.53
2019-02-17T10:56:30.601Z,101425.42
2019-02-17T10:58:59.258Z,101431.16
2019-02-17T11:01:27.945Z,101425.00
2019-02-17T11:04:40.197Z,101420.73
2019-02-17T11:07:08.810Z,101413.63
2019-02-17T11:09:37.439Z,101406.46
2019-02-17T11:12:06.149Z,101401.52
2019-02-17T11:14:34.801Z,101401.81
2019-02-17T11:17:03.454Z,101399.52
2019-02-17T11:19:32.100Z,101398.98
2019-02-17T11:22:00.712Z,101395.91
2019-02-17T11:24:29.342Z,101393.27
2019-02-17T11:26:57.959Z,101387.36
2019-02-17T11:29:26.624Z,101383.91
2019-02-17T11:31:55.276Z,101377.25
2019-02-17T11:34:23.972Z,101374.00
2019-02-17T11:36:52.597Z,101366.77
2019-02-17T11:39:21.557Z,101371.00
2019-02-17T11:41:50.253Z,101358.91
2019-02-17T11:44:19.011Z,101356.84
2019-02-17T11:46:47.629Z,101355.06
2019-02-17T11:49:16.263Z,101349.95
2019-02-17T11:51:44.893Z,101350.66
2019-02-17T11:54:13.602Z,101342.50
2019-02-17T11:56:42.313Z,101340.87
2019-02-17T11:59:10.936Z,101340.70
2019-02-17T12:01:39.643Z,101332.89
2019-02-17T12:04:08.373Z,101327.24
2019-02-17T12:06:37.011Z,101322.25
2019-02-17T12:09:45.770Z,101307.05
2019-02-17T12:12:14.914Z,101316.05
2019-02-17T12:14:43.545Z,101309.88
2019-02-17T12:17:12.219Z,101306.72
2019-02-17T12:19:40.854Z,101298.87
2019-02-17T12:22:28.690Z,101292.62
2019-02-17T12:25:16.338Z,101292.47
2019-02-17T12:28:03.999Z,101293.95
2019-02-17T12:30:32.654Z,101296.28
2019-02-17T12:33:01.275Z,101295.41
2019-02-17T12:35:29.907Z,101289.56
2019-02-17T12:37:58.521Z,101284.18
2019-02-17T12:40:27.165Z,101279.81
2019-02-17T12:42:55.814Z,101283.30
2019-02-17T12:45:24.472Z,101277.95
2019-02-17T12:47:57.911Z,101279.59
2019-02-17T12:50:23.593Z,101269.91
2019-02-17T12:52:52.213Z,101275.40
2019-02-17T12:55:20.915Z,101268.66
2019-02-17T12:57:49.533Z,101265.28
2019-02-17T13:00:18.491Z,101257.34
2019-02-17T13:02:47.158Z,101254.23
2019-02-17T13:05:15.844Z,101253.95
2019-02-17T13:07:44.482Z,101246.91
2019-02-17T13:10:13.443Z,101250.77
2019-02-17T13:12:42.361Z,101252.37
2019-02-17T13:15:11.525Z,101246.45
2019-02-17T13:17:40.124Z,101243.93
2019-02-17T13:20:10.472Z,101235.89
2019-02-17T13:22:58.164Z,101231.38
2019-02-17T13:25:26.783Z,101237.39
2019-02-17T13:27:55.415Z,101231.02
2019-02-17T13:30:24.181Z,101226.19
2019-02-17T13:32:52.889Z,101219.91
2019-02-17T13:35:21.640Z,101212.64
2019-02-17T13:37:50.311Z,101217.66
2019-02-17T13:40:19.024Z,101206.78
2019-02-17T13:42:47.884Z,101211.45
2019-02-17T13:45:16.683Z,101203.70
2019-02-17T13:47:45.725Z,101203.58
2019-02-17T13:50:14.450Z,101205.68
2019-02-17T13:52:43.209Z,101199.51
2019-02-17T13:55:11.940Z,101193.41
2019-02-17T13:57:40.694Z,101191.18
2019-02-17T14:00:28.567Z,101193.52
2019-02-17T14:02:57.200Z,101183.13
2019-02-17T14:05:25.986Z,101178.31
2019-02-17T14:07:54.624Z,101173.59
2019-02-17T14:10:23.263Z,101179.10
2019-02-17T14:12:51.891Z,101173.94
2019-02-17T14:15:20.520Z,101174.47
2019-02-17T14:17:49.251Z,101171.78
2019-02-17T14:20:17.935Z,101163.63
2019-02-17T14:22:46.577Z,101164.09
2019-02-17T14:25:15.271Z,101168.70
2019-02-17T14:27:43.971Z,101165.67
2019-02-17T14:30:12.819Z,101165.55
2019-02-17T14:32:41.527Z,101168.58
2019-02-17T14:35:10.271Z,101160.59
2019-02-17T14:37:38.985Z,101160.36
2019-02-17T14:40:26.844Z,101155.13
2019-02-17T14:42:55.572Z,101154.03
2019-02-17T14:45:24.268Z,101155.50
2019-02-17T14:47:52.927Z,101150.27
2019-02-17T14:50:21.590Z,101143.29
2019-02-17T14:52:50.237Z,101146.05
2019-02-17T14:55:18.849Z,101139.97
2019-02-17T14:57:47.491Z,101136.00
2019-02-17T15:00:16.198Z,101134.80
2019-02-17T15:02:44.906Z,101131.34
2019-02-17T15:05:13.686Z,101129.99
2019-02-17T15:07:42.389Z,101128.52
2019-02-17T15:10:11.098Z,101127.11
2019-02-17T15:12:39.747Z,101128.98
2019-02-17T15:15:09.182Z,101129.56
2019-02-17T15:17:37.803Z,101131.14
2019-02-17T15:20:08.565Z,101120.66
2019-02-17T15:22:37.188Z,101124.76
2019-02-17T15:25:07.494Z,101116.50
2019-02-17T15:27:37.179Z,101115.49
2019-02-17T15:30:06.870Z,101115.70
2019-02-17T15:32:35.484Z,101116.37
2019-02-17T15:35:04.477Z,101110.63
2019-02-17T15:37:33.173Z,101113.21
2019-02-17T15:40:09.760Z,101109.31
2019-02-17T15:42:38.398Z,101107.27
2019-02-17T15:45:08.414Z,101099.04
2019-02-17T15:47:37.050Z,101099.55
2019-02-17T15:50:06.524Z,101097.70
2019-02-17T15:52:35.139Z,101094.68
2019-02-17T15:55:03.875Z,101092.63
2019-02-17T15:57:32.502Z,101083.88
2019-02-17T16:00:01.195Z,101084.39
2019-02-17T16:02:29.821Z,101085.79
2019-02-17T16:04:58.456Z,101079.78
2019-02-17T16:07:27.074Z,101073.84
2019-02-17T16:09:55.833Z,101069.23
2019-02-17T16:12:24.509Z,101067.67
2019-02-17T16:14:53.208Z,101069.77
2019-02-17T16:17:21.903Z,101069.64
2019-02-17T16:19:50.591Z,101062.85
2019-02-17T16:22:19.220Z,101066.81
2019-02-17T16:24:47.843Z,101065.59
2019-02-17T16:27:16.513Z,101065.39
2019-02-17T16:29:45.149Z,101064.18
2019-02-17T16:32:13.830Z,101065.78
2019-02-17T16:34:42.576Z,101061.42
2019-02-17T16:37:11.193Z,101061.92
2019-02-17T16:39:39.824Z,101066.56
2019-02-17T16:42:08.474Z,101062.22
2019-02-17T16:44:37.286Z,101062.72
2019-02-17T16:47:05.908Z,101066.34
2019-02-17T16:49:34.552Z,101073.16
2019-02-17T16:52:03.172Z,101067.63
2019-02-17T16:54:31.821Z,101078.06
2019-02-17T16:57:00.461Z,101076.66
2019-02-17T16:59:29.094Z,101073.91
2019-02-17T17:01:57.735Z,101074.80
2019-02-17T17:04:26.360Z,101086.67
2019-02-17T17:06:55.081Z,101086.05
2019-02-17T17:09:23.709Z,101083.42
2019-02-17T17:11:52.329Z,101086.94
2019-02-17T17:14:21.052Z,101085.80
2019-02-17T17:16:49.658Z,101088.81
2019-02-17T17:19:18.285Z,101088.82
2019-02-17T17:21:47.040Z,101093.84
2019-02-17T17:27:23.652Z,101088.50
2019-02-17T17:33:22.708Z,101095.95
2019-02-17T17:35:51.353Z,101092.58
2019-02-17T17:38:20.497Z,101094.87
2019-02-17T17:40:49.353Z,101086.55
2019-02-17T17:43:18.361Z,101090.30
2019-02-17T17:51:42.304Z,101090.13
2019-02-17T17:54:11.095Z,101093.08
2019-02-17T17:56:59.116Z,101087.56
2019-02-17T17:59:27.900Z,101088.87
2019-02-17T18:01:56.765Z,101082.83
2019-02-17T18:04:25.476Z,101091.11
2019-02-17T18:06:54.234Z,101091.69
2019-02-17T18:09:23.051Z,101093.80
2019-02-17T18:11:51.764Z,101090.41
2019-02-17T18:14:20.608Z,101102.30
2019-02-17T18:16:49.313Z,101108.27
2019-02-17T18:19:18.136Z,101109.69
2019-02-17T18:21:49.573Z,101108.33
2019-02-17T18:24:18.554Z,101109.11
2019-02-17T18:29:22.867Z,101113.38
2019-02-17T18:31:51.593Z,101113.70
2019-02-17T18:37:14.554Z,101116.91
2019-02-17T18:39:43.301Z,101123.90
2019-02-17T18:42:12.124Z,101118.87
2019-02-17T18:44:41.068Z,101117.60
2019-02-17T18:47:10.014Z,101118.83
2019-02-17T18:49:39.128Z,101124.78
2019-02-17T18:52:08.210Z,101120.75
2019-02-17T18:54:39.354Z,101116.77
2019-02-17T18:57:08.784Z,101122.81
2019-02-17T18:59:37.612Z,101122.83
2019-02-17T19:02:47.183Z,101123.88
2019-02-17T19:05:15.955Z,101114.23
2019-02-17T19:07:44.663Z,101117.74
2019-02-17T19:10:13.519Z,101121.15
2019-02-17T19:12:42.302Z,101122.82
2019-02-17T19:15:12.413Z,101124.69
2019-02-17T19:17:41.123Z,101129.30
2019-02-17T19:20:12.025Z,101117.00
2019-02-17T19:22:40.811Z,101121.31
2019-02-17T19:25:09.758Z,101109.06
2019-02-17T19:27:38.605Z,101116.20
2019-02-17T19:30:26.589Z,101118.36
2019-02-17T19:32:55.463Z,101116.84
2019-02-17T19:35:24.222Z,101121.42
2019-02-17T19:38:32.896Z,101116.78
2019-02-17T19:44:21.313Z,101118.64
2019-02-17T19:49:52.642Z,101115.45
2019-02-17T19:52:40.854Z,101114.52
2019-02-17T19:55:10.114Z,101126.37
2019-02-17T19:57:38.825Z,101122.95
2019-02-17T20:00:10.767Z,101129.34
2019-02-17T20:05:52.066Z,101129.91
2019-02-17T20:08:17.537Z,101122.73
2019-02-17T20:10:48.332Z,101127.86
2019-02-17T20:13:19.180Z,101122.02
2019-02-17T20:15:47.982Z,101128.50
2019-02-17T20:18:16.764Z,101131.06
2019-02-17T20:20:45.518Z,101135.25
2019-02-17T20:23:14.326Z,101134.53
2019-02-17T20:25:43.129Z,101133.33
2019-02-17T20:31:21.980Z,101142.16
2019-02-17T20:33:50.567Z,101141.98
2019-02-17T20:36:20.069Z,101144.81
2019-02-17T20:38:48.729Z,101140.36
2019-02-17T20:41:17.566Z,101140.41
2019-02-17T20:43:46.285Z,101137.53
2019-02-17T20:46:15.033Z,101140.09
2019-02-17T20:49:13.177Z,101132.25
2019-02-17T20:54:37.916Z,101136.66
2019-02-17T20:57:07.521Z,101134.17
2019-02-17T21:00:32.131Z,101134.89
2019-02-17T21:02:47.205Z,101128.19
2019-02-17T21:10:45.690Z,101129.66
2019-02-17T21:13:15.031Z,101130.23
2019-02-17T21:15:43.827Z,101127.36
2019-02-17T21:18:31.707Z,101129.02
2019-02-17T21:21:00.484Z,101129.65
2019-02-17T21:23:29.242Z,101129.13
2019-02-17T21:25:57.955Z,101124.08
2019-02-17T21:28:26.817Z,101125.17
2019-02-17T21:31:14.755Z,101129.55
2019-02-17T21:33:43.998Z,101122.52
2019-02-17T21:36:22.556Z,101127.80
2019-02-17T21:38:43.235Z,101123.36
2019-02-17T21:43:46.542Z,101127.39
2019-02-17T21:46:15.237Z,101130.84
2019-02-17T21:48:43.944Z,101129.66
2019-02-17T21:51:12.699Z,101127.12
2019-02-17T21:53:41.446Z,101123.84
2019-02-17T21:56:10.190Z,101118.92
2019-02-17T21:58:38.988Z,101119.53
2019-02-17T22:03:55.466Z,101124.47
2019-02-17T22:06:33.271Z,101126.84
2019-02-17T22:08:54.697Z,101122.92
2019-02-17T22:11:23.492Z,101130.84
2019-02-17T22:13:52.239Z,101128.07
2019-02-17T22:16:20.973Z,101131.33
2019-02-17T22:18:49.781Z,101123.86
2019-02-17T22:21:20.681Z,101120.98
2019-02-17T22:24:08.524Z,101117.50
2019-02-17T22:26:37.260Z,101120.29
2019-02-17T22:29:06.082Z,101122.10
2019-02-17T22:31:53.763Z,101124.49
2019-02-17T22:34:22.894Z,101125.68
2019-02-17T22:39:43.228Z,101122.95
2019-02-17T22:42:11.972Z,101125.36
2019-02-17T22:44:40.711Z,101115.39
2019-02-17T22:47:09.540Z,101109.06
2019-02-17T22:49:38.333Z,101112.17
2019-02-17T22:52:07.096Z,101112.88
2019-02-17T22:54:37.929Z,101111.32
2019-02-17T22:57:07.464Z,101103.88
2019-02-17T22:59:36.158Z,101110.36
2019-02-17T23:07:50.976Z,101111.21
2019-02-17T23:12:54.839Z,101111.20
2019-02-17T23:15:23.645Z,101117.78
2019-02-17T23:17:52.690Z,101115.97
2019-02-17T23:20:24.471Z,101115.67
2019-02-17T23:22:53.218Z,101112.91
2019-02-17T23:25:24.460Z,101109.59
2019-02-17T23:27:53.169Z,101108.88
2019-02-17T23:30:21.874Z,101103.83
2019-02-17T23:32:50.636Z,101106.84
2019-02-17T23:35:19.335Z,101112.56
2019-02-17T23:37:48.448Z,101109.55
2019-02-17T23:40:17.232Z,101115.67
2019-02-17T23:42:53.737Z,101120.55
2019-02-17T23:45:22.564Z,101111.45
2019-02-17T23:47:51.322Z,101122.33
2019-02-17T23:50:20.116Z,101117.70
2019-02-17T23:52:48.881Z,101119.69
2019-02-17T23:55:17.585Z,101122.20
2019-02-17T23:57:46.255Z,101124.11
